createdAt,value
2018-06-09T00:00:49.657Z,18.70
2018-06-09T00:03:17.838Z,18.50
2018-06-09T00:05:45.990Z,18.50
2018-06-09T00:08:14.180Z,18.50
2018-06-09T00:10:42.337Z,18.30
2018-06-09T00:13:10.504Z,18.20
2018-06-09T00:15:38.675Z,18.30
2018-06-09T00:18:06.835Z,18.30
2018-06-09T00:20:34.982Z,18.40
2018-06-09T00:23:03.140Z,18.30
2018-06-09T00:25:31.313Z,18.00
2018-06-09T00:27:59.487Z,17.90
2018-06-09T00:30:27.639Z,18.00
2018-06-09T00:32:55.814Z,18.10
2018-06-09T00:35:23.984Z,18.20
2018-06-09T00:37:52.167Z,18.30
2018-06-09T00:40:20.361Z,18.20
2018-06-09T00:42:48.529Z,18.20
2018-06-09T00:45:16.721Z,18.20
2018-06-09T00:47:44.880Z,18.00
2018-06-09T00:50:13.060Z,18.00
2018-06-09T00:52:41.229Z,18.10
2018-06-09T00:55:09.413Z,18.20
2018-06-09T00:57:37.591Z,18.20
2018-06-09T01:00:05.763Z,18.40
2018-06-09T01:02:33.920Z,18.30
2018-06-09T01:05:02.091Z,18.30
2018-06-09T01:07:30.264Z,18.00
2018-06-09T01:09:58.424Z,18.00
2018-06-09T01:12:26.582Z,18.30
2018-06-09T01:14:54.770Z,18.40
2018-06-09T01:17:22.941Z,18.40
2018-06-09T01:19:51.133Z,18.20
2018-06-09T01:22:19.289Z,17.80
2018-06-09T01:24:47.465Z,17.70
2018-06-09T01:27:15.637Z,17.70
2018-06-09T01:29:43.811Z,17.70
2018-06-09T01:32:11.976Z,17.70
2018-06-09T01:34:40.136Z,17.60
2018-06-09T01:37:08.296Z,17.60
2018-06-09T01:39:36.467Z,17.60
2018-06-09T01:42:04.629Z,17.80
2018-06-09T01:47:00.974Z,18.00
2018-06-09T01:49:29.148Z,18.20
2018-06-09T01:54:25.244Z,18.20
2018-06-09T01:56:53.418Z,18.40
2018-06-09T01:59:21.588Z,18.50
2018-06-09T02:01:49.762Z,18.60
2018-06-09T02:04:17.943Z,18.60
2018-06-09T02:06:46.097Z,18.00
2018-06-09T02:09:14.289Z,17.80
2018-06-09T02:11:42.461Z,17.80
2018-06-09T02:14:10.635Z,18.10
2018-06-09T02:16:38.805Z,18.30
2018-06-09T02:21:41.668Z,18.10
2018-06-09T02:24:09.846Z,17.90
2018-06-09T02:26:38.127Z,18.10
2018-06-09T02:29:06.433Z,18.30
2018-06-09T02:31:34.706Z,17.90
2018-06-09T02:34:02.963Z,17.60
2018-06-09T02:36:31.191Z,18.00
2018-06-09T02:38:59.444Z,18.20
2018-06-09T02:41:27.692Z,18.40
2018-06-09T02:43:55.942Z,18.30
2018-06-09T02:46:24.178Z,17.90
2018-06-09T02:48:52.331Z,17.50
2018-06-09T02:51:20.520Z,17.20
2018-06-09T02:53:48.684Z,17.20
2018-06-09T02:56:16.871Z,17.20
2018-06-09T02:58:45.034Z,17.30
2018-06-09T03:01:13.231Z,17.20
2018-06-09T03:03:41.415Z,17.30
2018-06-09T03:06:09.610Z,17.50
2018-06-09T03:08:37.764Z,17.50
2018-06-09T03:11:05.940Z,17.50
2018-06-09T03:13:34.113Z,17.60
2018-06-09T03:16:02.305Z,17.70
2018-06-09T03:18:30.459Z,17.70
2018-06-09T03:20:58.642Z,17.80
2018-06-09T03:23:26.797Z,17.70
2018-06-09T03:25:54.986Z,17.60
2018-06-09T03:28:23.160Z,17.70
2018-06-09T03:30:51.335Z,17.80
2018-06-09T03:33:19.515Z,17.60
2018-06-09T03:35:47.689Z,17.40
2018-06-09T03:38:15.853Z,17.70
2018-06-09T03:40:44.033Z,17.80
2018-06-09T03:43:12.210Z,17.80
2018-06-09T03:45:40.375Z,17.80
2018-06-09T03:48:08.533Z,17.40
2018-06-09T03:50:36.780Z,17.10
2018-06-09T03:53:04.893Z,16.90
2018-06-09T03:55:33.044Z,17.00
2018-06-09T03:58:01.417Z,17.20
2018-06-09T04:00:29.600Z,17.20
2018-06-09T04:02:57.771Z,17.00
2018-06-09T04:05:25.930Z,16.90
2018-06-09T04:07:54.140Z,16.90
2018-06-09T04:10:22.333Z,17.20
2018-06-09T04:12:50.501Z,17.30
2018-06-09T04:15:18.662Z,17.50
2018-06-09T04:17:46.833Z,17.60
2018-06-09T04:20:15.017Z,17.40
2018-06-09T04:22:44.020Z,17.20
2018-06-09T04:25:12.190Z,17.20
2018-06-09T04:27:40.365Z,17.30
2018-06-09T04:30:08.530Z,17.40
2018-06-09T04:32:36.710Z,17.30
2018-06-09T04:35:04.944Z,17.40
2018-06-09T04:37:33.120Z,17.70
2018-06-09T04:40:01.346Z,17.80
2018-06-09T04:42:29.465Z,17.90
2018-06-09T04:44:57.635Z,18.00
2018-06-09T04:47:25.817Z,18.10
2018-06-09T04:49:54.004Z,18.10
2018-06-09T04:52:22.170Z,18.00
2018-06-09T04:54:50.329Z,18.10
2018-06-09T04:57:18.519Z,18.10
2018-06-09T04:59:46.699Z,17.90
2018-06-09T05:02:14.877Z,17.90
2018-06-09T05:04:43.045Z,18.00
2018-06-09T05:07:11.281Z,18.10
2018-06-09T05:09:39.397Z,18.30
2018-06-09T05:12:07.569Z,18.00
2018-06-09T05:14:35.739Z,17.70
2018-06-09T05:17:04.121Z,17.60
2018-06-09T05:19:32.308Z,17.90
2018-06-09T05:22:00.550Z,18.30
2018-06-09T05:24:28.704Z,18.50
2018-06-09T05:26:56.866Z,18.70
2018-06-09T05:31:52.916Z,19.10
2018-06-09T05:34:21.076Z,19.20
2018-06-09T05:39:17.186Z,19.60
2018-06-09T05:41:45.338Z,19.10
2018-06-09T05:44:13.509Z,19.30
2018-06-09T05:46:41.690Z,19.20
2018-06-09T05:49:09.869Z,19.30
2018-06-09T05:51:38.046Z,19.60
2018-06-09T05:54:06.224Z,19.40
2018-06-09T05:56:34.401Z,19.60
2018-06-09T05:59:02.594Z,20.00
2018-06-09T06:01:30.753Z,20.10
2018-06-09T06:03:58.952Z,20.20
2018-06-09T06:06:27.083Z,20.10
2018-06-09T06:08:55.258Z,19.90
2018-06-09T06:11:23.433Z,19.80
2018-06-09T06:13:51.620Z,19.90
2018-06-09T06:16:19.804Z,19.80
2018-06-09T06:18:47.982Z,19.50
2018-06-09T06:21:16.128Z,19.60
2018-06-09T06:23:44.313Z,19.80
2018-06-09T06:26:12.473Z,20.00
2018-06-09T06:28:40.644Z,20.00
2018-06-09T06:31:08.816Z,20.00
2018-06-09T06:33:36.993Z,20.10
2018-06-09T06:36:05.181Z,20.00
2018-06-09T06:38:33.357Z,19.60
2018-06-09T06:41:01.538Z,19.80
2018-06-09T06:43:29.718Z,20.00
2018-06-09T06:45:57.896Z,20.20
2018-06-09T06:48:26.050Z,20.00
2018-06-09T06:50:54.218Z,20.00
2018-06-09T06:53:22.389Z,20.20
2018-06-09T06:55:50.558Z,20.50
2018-06-09T06:58:18.741Z,20.70
2018-06-09T07:00:46.905Z,20.60
2018-06-09T07:03:15.085Z,20.40
2018-06-09T07:05:43.270Z,20.60
2018-06-09T07:08:11.431Z,20.70
2018-06-09T07:10:39.617Z,20.60
2018-06-09T07:13:07.773Z,20.40
2018-06-09T07:15:35.968Z,21.00
2018-06-09T07:18:04.130Z,21.30
2018-06-09T07:20:32.285Z,21.70
2018-06-09T07:23:00.466Z,21.90
2018-06-09T07:25:28.631Z,22.10
2018-06-09T07:27:56.801Z,21.80
2018-06-09T07:30:24.991Z,21.50
2018-06-09T07:32:53.147Z,21.80
2018-06-09T07:35:21.331Z,22.50
2018-06-09T07:37:49.501Z,22.90
2018-06-09T07:40:17.700Z,23.30
2018-06-09T07:42:45.844Z,24.80
2018-06-09T07:45:14.029Z,25.10
2018-06-09T07:47:42.192Z,25.80
2018-06-09T07:50:10.371Z,25.80
2018-06-09T07:52:38.510Z,26.20
2018-06-09T07:55:06.734Z,25.90
2018-06-09T07:57:34.898Z,26.00
2018-06-09T08:00:03.081Z,26.60
2018-06-09T08:02:31.246Z,26.00
2018-06-09T08:04:59.418Z,26.40
2018-06-09T08:07:27.578Z,26.80
2018-06-09T08:09:55.767Z,27.00
2018-06-09T08:12:23.954Z,26.90
2018-06-09T08:14:52.154Z,26.40
2018-06-09T08:17:20.383Z,27.20
2018-06-09T08:19:48.562Z,27.30
2018-06-09T08:22:16.726Z,27.60
2018-06-09T08:24:44.900Z,28.20
2018-06-09T08:27:13.058Z,25.70
2018-06-09T08:32:09.162Z,27.40
2018-06-09T08:34:37.336Z,27.80
2018-06-09T08:37:05.497Z,27.50
2018-06-09T08:39:33.671Z,28.00
2018-06-09T08:42:01.860Z,28.30
2018-06-09T08:44:30.035Z,28.30
2018-06-09T08:46:58.198Z,27.70
2018-06-09T08:49:26.361Z,26.00
2018-06-09T08:51:54.533Z,26.90
2018-06-09T08:54:22.681Z,27.80
2018-06-09T08:56:50.892Z,28.30
2018-06-09T08:59:19.020Z,26.70
2018-06-09T09:04:15.106Z,28.20
2018-06-09T09:06:43.277Z,28.70
2018-06-09T09:09:11.462Z,28.50
2018-06-09T09:11:39.638Z,28.60
2018-06-09T09:14:07.805Z,29.00
2018-06-09T09:16:35.995Z,28.90
2018-06-09T09:19:04.149Z,29.20
2018-06-09T09:21:32.323Z,29.30
2018-06-09T09:24:00.497Z,28.40
2018-06-09T09:26:28.677Z,27.70
2018-06-09T09:28:56.884Z,28.10
2018-06-09T09:31:25.062Z,28.60
2018-06-09T09:33:53.220Z,29.40
2018-06-09T09:36:21.430Z,28.00
2018-06-09T09:38:49.612Z,27.80
2018-06-09T09:41:17.827Z,28.00
2018-06-09T09:43:46.009Z,27.50
2018-06-09T09:46:14.212Z,27.90
2018-06-09T09:48:42.427Z,27.80
2018-06-09T09:51:10.622Z,29.10
2018-06-09T09:53:38.801Z,29.60
2018-06-09T09:56:06.982Z,28.20
2018-06-09T09:58:35.176Z,28.50
2018-06-09T10:01:03.345Z,28.50
2018-06-09T10:03:31.513Z,28.10
2018-06-09T10:05:59.718Z,27.50
2018-06-09T10:08:27.932Z,27.60
2018-06-09T10:10:56.117Z,28.40
2018-06-09T10:13:24.289Z,28.00
2018-06-09T10:15:52.472Z,28.10
2018-06-09T10:18:20.637Z,28.20
2018-06-09T10:20:48.821Z,28.20
2018-06-09T10:23:16.993Z,28.60
2018-06-09T10:25:45.168Z,29.00
2018-06-09T10:28:13.357Z,28.70
2018-06-09T10:30:41.626Z,28.50
2018-06-09T10:33:09.809Z,27.30
2018-06-09T10:35:37.985Z,28.10
2018-06-09T10:38:06.212Z,28.60
2018-06-09T10:40:34.413Z,29.70
2018-06-09T10:43:02.585Z,29.70
2018-06-09T10:45:30.754Z,30.10
2018-06-09T10:47:58.933Z,30.00
2018-06-09T10:50:27.121Z,30.00
2018-06-09T10:52:55.364Z,30.50
2018-06-09T10:55:23.561Z,31.20
2018-06-09T10:57:51.749Z,31.60
2018-06-09T11:00:19.928Z,31.60
2018-06-09T11:02:48.098Z,32.30
2018-06-09T11:05:16.266Z,32.50
2018-06-09T11:07:44.526Z,31.70
2018-06-09T11:10:12.705Z,32.40
2018-06-09T11:12:40.881Z,30.50
2018-06-09T11:15:09.066Z,30.20
2018-06-09T11:17:37.315Z,31.00
2018-06-09T11:20:05.503Z,30.20
2018-06-09T11:22:33.674Z,31.20
2018-06-09T11:25:01.852Z,30.00
2018-06-09T11:27:30.027Z,29.20
2018-06-09T11:29:58.242Z,28.90
2018-06-09T11:32:26.389Z,30.60
2018-06-09T11:34:54.609Z,30.30
2018-06-09T11:37:22.805Z,30.20
2018-06-09T11:39:51.013Z,31.20
2018-06-09T11:42:19.212Z,29.20
2018-06-09T11:44:47.407Z,28.50
2018-06-09T11:47:15.596Z,29.30
2018-06-09T11:49:43.805Z,29.70
2018-06-09T11:52:11.985Z,30.10
2018-06-09T11:54:40.182Z,30.40
2018-06-09T11:57:08.378Z,30.80
2018-06-09T11:59:36.554Z,29.60
2018-06-09T12:04:32.676Z,28.90
2018-06-09T12:09:28.786Z,28.30
2018-06-09T12:11:56.948Z,28.20
2018-06-09T12:14:25.134Z,28.10
2018-06-09T12:16:53.336Z,29.10
2018-06-09T12:19:21.559Z,29.30
2018-06-09T12:21:49.744Z,27.90
2018-06-09T12:24:17.914Z,27.00
2018-06-09T12:26:46.157Z,27.40
2018-06-09T12:29:14.355Z,27.50
2018-06-09T12:31:42.541Z,27.60
2018-06-09T12:34:10.730Z,27.80
2018-06-09T12:36:38.957Z,27.50
2018-06-09T12:39:07.793Z,27.80
2018-06-09T12:41:35.983Z,27.20
2018-06-09T12:44:04.179Z,26.80
2018-06-09T12:46:32.365Z,26.80
2018-06-09T12:51:28.520Z,27.60
2018-06-09T12:53:56.696Z,27.20
2018-06-09T12:56:24.889Z,27.10
2018-06-09T12:58:53.077Z,26.90
2018-06-09T13:01:21.363Z,26.60
2018-06-09T13:03:49.610Z,26.60
2018-06-09T13:06:17.806Z,26.20
2018-06-09T13:08:46.053Z,26.20
2018-06-09T13:11:14.226Z,26.00
2018-06-09T13:13:42.401Z,26.30
2018-06-09T13:16:10.573Z,26.60
2018-06-09T13:18:38.853Z,26.70
2018-06-09T13:21:07.040Z,26.70
2018-06-09T13:23:35.225Z,26.30
2018-06-09T13:26:03.474Z,26.10
2018-06-09T13:28:31.648Z,26.50
2018-06-09T13:30:59.808Z,27.10
2018-06-09T13:33:27.984Z,26.90
2018-06-09T13:35:56.210Z,26.60
2018-06-09T13:38:24.358Z,26.90
2018-06-09T13:40:52.519Z,27.30
2018-06-09T13:43:20.774Z,27.00
2018-06-09T13:48:16.942Z,27.40
2018-06-09T13:50:45.104Z,27.10
2018-06-09T13:53:13.310Z,27.10
2018-06-09T13:55:41.481Z,27.80
2018-06-09T13:58:09.659Z,27.90
2018-06-09T14:00:37.866Z,27.50
2018-06-09T14:03:06.072Z,27.30
2018-06-09T14:08:02.230Z,26.80
2018-06-09T14:10:30.430Z,26.60
2018-06-09T14:12:58.673Z,26.90
2018-06-09T14:15:26.861Z,27.20
2018-06-09T14:17:55.051Z,26.90
2018-06-09T14:20:23.233Z,26.10
2018-06-09T14:22:51.432Z,25.60
2018-06-09T14:25:19.646Z,25.00
2018-06-09T14:27:47.825Z,24.60
2018-06-09T14:30:15.990Z,24.60
2018-06-09T14:32:44.170Z,25.00
2018-06-09T14:35:12.366Z,25.30
2018-06-09T14:37:40.538Z,25.20
2018-06-09T14:40:08.739Z,24.70
2018-06-09T14:42:36.939Z,24.70
2018-06-09T14:45:05.146Z,24.60
2018-06-09T14:47:33.337Z,24.50
2018-06-09T14:50:01.526Z,24.70
2018-06-09T14:52:29.700Z,25.00
2018-06-09T14:54:57.909Z,25.00
2018-06-09T14:57:26.114Z,24.70
2018-06-09T14:59:54.313Z,24.50
2018-06-09T15:02:22.484Z,24.90
2018-06-09T15:04:50.707Z,24.70
2018-06-09T15:07:18.936Z,25.10
2018-06-09T15:09:47.098Z,25.50
2018-06-09T15:12:15.277Z,25.30
2018-06-09T15:14:43.456Z,25.40
2018-06-09T15:17:18.375Z,25.70
2018-06-09T15:19:46.549Z,25.30
2018-06-09T15:22:14.732Z,25.00
2018-06-09T15:24:42.957Z,24.90
2018-06-09T15:27:11.167Z,24.60
2018-06-09T15:29:39.369Z,24.80
2018-06-09T15:32:07.597Z,24.80
2018-06-09T15:37:03.729Z,24.20
2018-06-09T15:39:31.906Z,24.40
2018-06-09T15:42:00.127Z,24.20
2018-06-09T15:44:28.320Z,23.90
2018-06-09T15:46:56.521Z,24.20
2018-06-09T15:49:24.708Z,24.40
2018-06-09T15:54:20.862Z,23.90
2018-06-09T15:59:16.991Z,23.70
2018-06-09T16:01:45.169Z,23.90
2018-06-09T16:06:41.305Z,24.00
2018-06-09T16:09:09.557Z,24.00
2018-06-09T16:11:37.701Z,23.90
2018-06-09T16:14:05.977Z,23.90
2018-06-09T16:16:34.157Z,23.70
2018-06-09T16:19:02.317Z,23.30
2018-06-09T16:21:30.495Z,23.30
2018-06-09T16:23:58.678Z,23.40
2018-06-09T16:26:26.893Z,23.10
2018-06-09T16:28:55.083Z,22.40
2018-06-09T16:31:23.341Z,22.30
2018-06-09T16:33:51.538Z,22.30
2018-06-09T16:38:47.659Z,21.80
2018-06-09T16:41:15.844Z,21.80
2018-06-09T16:43:44.010Z,21.80
2018-06-09T16:46:12.186Z,22.00
2018-06-09T16:48:40.763Z,22.20
2018-06-09T16:51:08.957Z,22.20
2018-06-09T16:53:37.145Z,22.20
2018-06-09T16:58:33.254Z,22.20
2018-06-09T17:01:01.490Z,22.20
2018-06-09T17:05:57.606Z,21.90
2018-06-09T17:08:25.777Z,21.90
2018-06-09T17:13:21.905Z,21.90
2018-06-09T17:15:50.081Z,21.90
2018-06-09T17:18:18.270Z,21.90
2018-06-09T17:23:14.380Z,21.50
2018-06-09T17:25:42.572Z,21.60
2018-06-09T17:28:10.747Z,21.40
2018-06-09T17:30:38.909Z,21.00
2018-06-09T17:33:07.100Z,20.80
2018-06-09T17:38:03.188Z,20.60
2018-06-09T17:40:31.344Z,20.60
2018-06-09T17:42:59.520Z,20.80
2018-06-09T17:45:27.670Z,20.70
2018-06-09T17:47:55.946Z,20.90
2018-06-09T17:52:52.074Z,21.60
2018-06-09T17:55:20.240Z,21.70
2018-06-09T17:57:48.450Z,21.80
2018-06-09T18:00:16.609Z,21.70
2018-06-09T18:05:12.713Z,21.50
2018-06-09T18:07:40.888Z,21.70
2018-06-09T18:10:09.097Z,21.70
2018-06-09T18:12:37.221Z,21.80
2018-06-09T18:15:05.408Z,21.20
2018-06-09T18:17:33.598Z,20.70
2018-06-09T18:20:01.765Z,20.40
2018-06-09T18:22:29.949Z,20.30
2018-06-09T18:24:58.145Z,20.50
2018-06-09T18:27:26.318Z,20.50
2018-06-09T18:32:22.453Z,20.50
2018-06-09T18:34:50.633Z,20.40
2018-06-09T18:37:18.822Z,20.20
2018-06-09T18:39:46.997Z,20.20
2018-06-09T18:42:15.153Z,20.00
2018-06-09T18:44:43.335Z,20.20
2018-06-09T18:49:39.445Z,19.80
2018-06-09T18:52:07.617Z,19.90
2018-06-09T18:54:35.797Z,19.90
2018-06-09T18:57:03.955Z,20.00
2018-06-09T18:59:32.140Z,20.00
2018-06-09T19:02:00.325Z,19.60
2018-06-09T19:04:28.509Z,19.50
2018-06-09T19:06:56.667Z,19.70
2018-06-09T19:09:24.838Z,19.40
2018-06-09T19:11:53.014Z,19.50
2018-06-09T19:14:21.193Z,19.90
2018-06-09T19:16:49.354Z,19.70
2018-06-09T19:19:17.541Z,19.50
2018-06-09T19:21:45.795Z,19.90
2018-06-09T19:24:13.974Z,20.20
2018-06-09T19:26:42.142Z,20.40
2018-06-09T19:29:10.565Z,20.50
2018-06-09T19:31:38.745Z,20.70
2018-06-09T19:34:06.900Z,20.40
2018-06-09T19:36:35.066Z,20.50
2018-06-09T19:39:04.017Z,20.40
2018-06-09T19:41:32.202Z,20.30
2018-06-09T19:44:00.401Z,20.00
2018-06-09T19:46:28.577Z,19.80
2018-06-09T19:48:56.783Z,19.60
2018-06-09T19:53:52.925Z,19.50
2018-06-09T19:56:21.150Z,19.70
2018-06-09T19:58:49.350Z,19.90
2018-06-09T20:01:17.514Z,19.70
2018-06-09T20:03:45.699Z,19.40
2018-06-09T20:06:13.881Z,19.40
2018-06-09T20:08:42.052Z,19.70
2018-06-09T20:11:10.197Z,19.20
2018-06-09T20:13:38.406Z,19.10
2018-06-09T20:16:06.549Z,19.10
2018-06-09T20:18:34.717Z,18.90
2018-06-09T20:21:02.894Z,19.00
2018-06-09T20:23:31.084Z,19.30
2018-06-09T20:26:04.218Z,19.30
2018-06-09T20:28:32.671Z,19.40
2018-06-09T20:31:00.963Z,19.60
2018-06-09T20:33:29.133Z,19.70
2018-06-09T20:38:25.257Z,19.40
2018-06-09T20:40:53.440Z,19.50
2018-06-09T20:43:21.593Z,19.60
2018-06-09T20:45:49.776Z,19.60
2018-06-09T20:48:17.958Z,19.60
2018-06-09T20:50:46.144Z,19.60
2018-06-09T20:53:14.322Z,19.50
2018-06-09T20:55:42.513Z,19.10
2018-06-09T20:58:10.857Z,18.90
2018-06-09T21:00:39.154Z,19.10
2018-06-09T21:05:35.381Z,19.40
2018-06-09T21:08:03.623Z,19.50
2018-06-09T21:10:31.857Z,19.60
2018-06-09T21:13:00.098Z,19.70
2018-06-09T21:15:28.319Z,19.10
2018-06-09T21:17:56.484Z,18.70
2018-06-09T21:20:24.669Z,18.50
2018-06-09T21:22:52.830Z,18.40
2018-06-09T21:25:21.038Z,18.50
2018-06-09T21:27:54.603Z,18.50
2018-06-09T21:33:01.807Z,18.50
2018-06-09T21:35:43.466Z,18.50
2018-06-09T21:38:17.810Z,18.90
2018-06-09T21:40:48.547Z,18.90
2018-06-09T21:43:22.454Z,18.90
2018-06-09T21:48:19.860Z,18.80
2018-06-09T21:50:48.054Z,18.50
2018-06-09T21:53:16.228Z,18.50
2018-06-09T21:55:44.401Z,18.70
2018-06-09T21:58:12.594Z,18.80
2018-06-09T22:00:40.822Z,19.20
2018-06-09T22:03:08.981Z,19.30
2018-06-09T22:08:05.138Z,19.00
2018-06-09T22:10:33.297Z,18.70
2018-06-09T22:15:29.409Z,18.70
2018-06-09T22:17:57.620Z,18.90
2018-06-09T22:20:25.795Z,19.00
2018-06-09T22:25:27.310Z,19.10
2018-06-09T22:27:55.492Z,18.90
2018-06-09T22:30:23.665Z,19.00
2018-06-09T22:32:51.841Z,18.70
2018-06-09T22:35:20.005Z,18.50
2018-06-09T22:37:48.225Z,18.50
2018-06-09T22:40:16.406Z,18.60
2018-06-09T22:45:12.557Z,18.80
2018-06-09T22:47:41.161Z,19.00
2018-06-09T22:50:09.369Z,19.10
2018-06-09T22:52:37.536Z,19.10
2018-06-09T22:55:05.793Z,19.10
2018-06-09T22:57:33.974Z,19.10
2018-06-09T23:00:02.166Z,19.10
2018-06-09T23:02:30.321Z,19.10
2018-06-09T23:04:58.489Z,19.10
2018-06-09T23:07:26.665Z,18.90
2018-06-09T23:09:54.846Z,18.60
2018-06-09T23:12:23.038Z,18.20
2018-06-09T23:14:51.221Z,18.20
2018-06-09T23:17:19.397Z,18.40
2018-06-09T23:19:47.596Z,18.60
2018-06-09T23:22:15.764Z,18.70
2018-06-09T23:27:11.942Z,18.80
2018-06-09T23:29:40.191Z,18.80
2018-06-09T23:32:08.444Z,18.70
2018-06-09T23:34:36.704Z,18.90
2018-06-09T23:37:04.967Z,18.80
2018-06-09T23:39:33.236Z,18.80
2018-06-09T23:42:01.595Z,18.80
2018-06-09T23:44:29.779Z,18.70
2018-06-09T23:46:57.965Z,18.30
2018-06-09T23:49:26.140Z,18.10
2018-06-09T23:51:54.347Z,18.00
2018-06-09T23:54:22.497Z,17.80
2018-06-09T23:56:50.694Z,18.00
2018-06-09T23:59:18.873Z,18.20
